createdAt,value
2023-05-14T00:03:04.425Z,12.18
2023-05-14T00:08:25.671Z,11.87
2023-05-14T00:13:47.203Z,11.69
2023-05-14T00:19:08.493Z,11.59
2023-05-14T00:24:29.237Z,11.58
2023-05-14T00:29:50.023Z,11.66
2023-05-14T00:35:11.112Z,11.56
2023-05-14T00:40:32.389Z,11.59
2023-05-14T00:45:56.175Z,11.79
2023-05-14T00:51:19.117Z,11.94
2023-05-14T00:56:40.046Z,11.96
2023-05-14T01:02:01.037Z,11.93
2023-05-14T01:07:37.392Z,11.86
2023-05-14T01:13:15.724Z,11.79
2023-05-14T01:18:37.226Z,11.85
2023-05-14T01:23:57.867Z,11.84
2023-05-14T01:29:23.694Z,11.91
2023-05-14T01:34:48.870Z,11.87
2023-05-14T01:40:11.519Z,11.93
2023-05-14T01:45:35.642Z,11.95
2023-05-14T01:50:56.524Z,11.82
2023-05-14T01:56:24.171Z,11.74
2023-05-14T02:01:45.376Z,11.72
2023-05-14T02:07:06.155Z,11.57
2023-05-14T02:12:27.064Z,11.56
2023-05-14T02:17:47.971Z,11.54
2023-05-14T02:23:09.300Z,11.66
2023-05-14T02:28:30.140Z,11.80
2023-05-14T02:33:51.126Z,11.77
2023-05-14T02:39:11.970Z,11.71
2023-05-14T02:44:33.081Z,11.74
2023-05-14T02:49:54.235Z,11.76
2023-05-14T02:55:15.128Z,11.71
2023-05-14T03:00:36.100Z,11.72
2023-05-14T03:05:57.879Z,11.71
2023-05-14T03:11:19.049Z,11.61
2023-05-14T03:16:42.349Z,11.76
2023-05-14T03:22:03.630Z,11.95
2023-05-14T03:27:24.777Z,12.12
2023-05-14T03:32:46.239Z,12.10
2023-05-14T03:38:07.813Z,12.04
2023-05-14T03:43:28.970Z,12.01
2023-05-14T03:48:51.499Z,12.02
2023-05-14T03:54:12.741Z,12.06
2023-05-14T03:59:33.791Z,12.08
2023-05-14T04:04:54.809Z,12.09
2023-05-14T04:10:16.371Z,12.09
2023-05-14T04:15:39.362Z,12.04
2023-05-14T04:21:00.881Z,11.87
2023-05-14T04:26:22.133Z,11.84
2023-05-14T04:31:43.372Z,11.94
2023-05-14T04:37:04.449Z,11.87
2023-05-14T04:42:25.629Z,11.91
2023-05-14T04:47:46.915Z,11.98
2023-05-14T04:53:07.649Z,12.04
2023-05-14T04:58:29.455Z,12.07
2023-05-14T05:03:51.634Z,12.10
2023-05-14T05:09:13.155Z,12.15
2023-05-14T05:14:34.137Z,12.28
2023-05-14T05:19:55.312Z,12.42
2023-05-14T05:25:16.522Z,12.57
2023-05-14T05:30:37.465Z,12.72
2023-05-14T05:35:58.179Z,13.05
2023-05-14T05:41:18.938Z,13.21
2023-05-14T05:46:39.757Z,13.80
2023-05-14T05:52:00.733Z,14.00
2023-05-14T05:57:22.917Z,13.79
2023-05-14T06:02:45.074Z,13.81
2023-05-14T06:08:06.126Z,13.82
2023-05-14T06:13:29.278Z,14.33
2023-05-14T06:18:49.987Z,14.26
2023-05-14T06:24:13.439Z,14.05
2023-05-14T06:29:34.315Z,13.52
2023-05-14T06:34:58.075Z,13.32
2023-05-14T06:40:19.324Z,13.41
2023-05-14T06:45:40.618Z,13.36
2023-05-14T06:51:03.499Z,13.40
2023-05-14T06:56:24.506Z,13.45
2023-05-14T07:01:45.257Z,13.46
2023-05-14T07:07:06.000Z,13.57
2023-05-14T07:12:27.449Z,13.69
2023-05-14T07:17:48.407Z,13.77
2023-05-14T07:23:09.345Z,13.86
2023-05-14T07:28:30.392Z,13.94
2023-05-14T07:33:51.247Z,14.05
2023-05-14T07:39:12.415Z,14.12
2023-05-14T07:44:33.286Z,14.10
2023-05-14T07:49:57.750Z,13.92
2023-05-14T07:55:18.498Z,13.94
2023-05-14T08:00:39.798Z,13.90
2023-05-14T08:06:00.757Z,13.81
2023-05-14T08:11:22.562Z,13.86
2023-05-14T08:16:43.567Z,14.01
2023-05-14T08:22:04.939Z,14.24
2023-05-14T08:27:26.501Z,14.43
2023-05-14T08:32:47.754Z,14.63
2023-05-14T08:38:08.702Z,14.50
2023-05-14T08:43:43.181Z,14.48
2023-05-14T08:49:38.272Z,14.61
2023-05-14T08:55:01.622Z,14.79
2023-05-14T09:00:23.396Z,15.00
2023-05-14T09:05:45.957Z,15.11
2023-05-14T09:11:06.988Z,14.94
2023-05-14T09:16:28.610Z,14.94
2023-05-14T09:21:50.014Z,14.96
2023-05-14T09:27:20.159Z,14.99
2023-05-14T09:32:46.033Z,15.00
2023-05-14T09:38:07.920Z,15.14
2023-05-14T09:43:29.153Z,15.04
2023-05-14T09:48:50.501Z,14.90
2023-05-14T09:54:12.018Z,14.96
2023-05-14T09:59:33.104Z,15.06
2023-05-14T10:04:58.120Z,15.02
2023-05-14T10:10:21.413Z,15.01
2023-05-14T10:15:56.106Z,15.13
2023-05-14T10:21:20.238Z,15.07
2023-05-14T10:26:42.153Z,15.00
2023-05-14T10:32:08.274Z,15.01
2023-05-14T10:37:30.656Z,14.91
2023-05-14T10:42:52.706Z,14.91
2023-05-14T10:48:14.468Z,14.97
2023-05-14T10:53:37.917Z,15.06
2023-05-14T10:59:00.373Z,15.19
2023-05-14T11:04:25.264Z,15.22
2023-05-14T11:09:47.308Z,15.33
2023-05-14T11:15:13.389Z,15.66
2023-05-14T11:20:36.113Z,15.92
2023-05-14T11:26:01.341Z,15.95
2023-05-14T11:31:25.710Z,15.92
2023-05-14T11:36:49.748Z,15.92
2023-05-14T11:42:13.569Z,16.09
2023-05-14T11:47:34.828Z,16.27
2023-05-14T11:52:59.141Z,16.33
2023-05-14T11:58:20.475Z,16.30
2023-05-14T12:03:43.889Z,16.39
2023-05-14T12:09:08.441Z,16.51
2023-05-14T12:14:29.578Z,16.39
2023-05-14T12:19:55.065Z,16.29
2023-05-14T12:25:16.360Z,16.32
2023-05-14T12:30:38.168Z,16.38
2023-05-14T12:36:19.723Z,16.41
2023-05-14T12:41:41.927Z,16.59
2023-05-14T12:47:02.959Z,16.59
2023-05-14T12:52:36.861Z,16.61
2023-05-14T12:58:00.120Z,16.65
2023-05-14T13:03:21.264Z,16.57
2023-05-14T13:08:42.762Z,16.55
2023-05-14T13:14:04.293Z,16.55
2023-05-14T13:19:25.339Z,16.36
2023-05-14T13:24:47.718Z,16.30
2023-05-14T13:30:09.119Z,16.27
2023-05-14T13:35:30.390Z,16.22
2023-05-14T13:40:51.179Z,16.21
2023-05-14T13:46:13.977Z,16.11
2023-05-14T13:51:35.074Z,15.82
2023-05-14T13:56:56.426Z,15.60
2023-05-14T14:02:17.890Z,15.48
2023-05-14T14:07:43.193Z,15.40
2023-05-14T14:13:04.148Z,15.34
2023-05-14T14:18:25.132Z,15.19
2023-05-14T14:23:46.381Z,14.97
2023-05-14T14:29:07.359Z,14.85
2023-05-14T14:34:28.210Z,14.84
2023-05-14T14:39:49.366Z,14.72
2023-05-14T14:45:11.106Z,14.51
2023-05-14T14:50:32.412Z,14.36
2023-05-14T14:55:53.697Z,14.32
2023-05-14T15:01:14.765Z,14.17
2023-05-14T15:06:35.730Z,13.97
2023-05-14T15:11:56.835Z,13.94
2023-05-14T15:17:17.895Z,13.85
2023-05-14T15:22:38.821Z,13.87
2023-05-14T15:28:00.204Z,13.78
2023-05-14T15:33:21.324Z,13.76
2023-05-14T15:38:42.637Z,13.66
2023-05-14T15:44:03.888Z,13.48
2023-05-14T15:49:25.099Z,13.42
2023-05-14T15:54:47.345Z,13.41
2023-05-14T16:00:12.099Z,13.40
2023-05-14T16:05:33.268Z,13.32
2023-05-14T16:10:54.515Z,13.25
2023-05-14T16:16:15.912Z,13.18
2023-05-14T16:21:37.229Z,13.03
2023-05-14T16:27:00.124Z,13.11
2023-05-14T16:32:24.060Z,13.09
2023-05-14T16:37:44.992Z,13.10
2023-05-14T16:43:05.892Z,13.00
2023-05-14T16:48:28.070Z,12.96
2023-05-14T16:53:49.413Z,12.94
2023-05-14T16:59:10.550Z,12.87
2023-05-14T17:04:32.997Z,12.85
2023-05-14T17:09:54.034Z,12.77
2023-05-14T17:15:15.084Z,12.69
2023-05-14T17:20:36.114Z,12.60
2023-05-14T17:25:57.356Z,12.63
2023-05-14T17:31:18.185Z,12.65
2023-05-14T17:36:39.618Z,12.60
2023-05-14T17:42:00.459Z,12.50
2023-05-14T17:47:21.311Z,12.58
2023-05-14T17:52:44.258Z,12.67
2023-05-14T17:58:05.601Z,12.71
2023-05-14T18:03:26.981Z,12.80
2023-05-14T18:08:50.090Z,12.88
2023-05-14T18:14:10.880Z,12.80
2023-05-14T18:19:31.969Z,12.92
2023-05-14T18:24:53.237Z,13.02
2023-05-14T18:30:15.633Z,12.98
2023-05-14T18:35:36.608Z,12.91
2023-05-14T18:40:57.855Z,12.76
2023-05-14T18:46:18.723Z,12.69
2023-05-14T18:51:40.904Z,12.72
2023-05-14T18:57:02.021Z,12.70
2023-05-14T19:02:23.251Z,12.72
2023-05-14T19:07:44.365Z,12.85
2023-05-14T19:13:05.222Z,12.85
2023-05-14T19:18:26.576Z,12.61
2023-05-14T19:23:47.372Z,12.43
2023-05-14T19:29:08.422Z,12.46
2023-05-14T19:34:29.161Z,12.52
2023-05-14T19:39:49.872Z,12.55
2023-05-14T19:45:11.167Z,12.55
2023-05-14T19:50:37.073Z,12.55
2023-05-14T19:55:59.995Z,12.55
2023-05-14T20:01:21.146Z,12.48
2023-05-14T20:06:45.553Z,12.47
2023-05-14T20:12:06.906Z,12.46
2023-05-14T20:17:27.893Z,12.43
2023-05-14T20:22:49.158Z,12.41
2023-05-14T20:28:10.841Z,12.42
2023-05-14T20:33:31.999Z,12.35
2023-05-14T20:38:53.013Z,12.33
2023-05-14T20:44:16.435Z,12.28
2023-05-14T20:49:38.773Z,12.28
2023-05-14T20:55:01.503Z,12.34
2023-05-14T21:00:22.841Z,12.41
2023-05-14T21:05:43.821Z,12.36
2023-05-14T21:11:04.976Z,12.37
2023-05-14T21:16:26.193Z,12.35
2023-05-14T21:21:47.517Z,12.40
2023-05-14T21:27:08.638Z,12.33
2023-05-14T21:32:29.703Z,12.22
2023-05-14T21:37:51.304Z,12.15
2023-05-14T21:43:12.521Z,12.19
2023-05-14T21:48:33.569Z,12.22
2023-05-14T21:53:54.607Z,12.24
2023-05-14T21:59:15.499Z,12.13
2023-05-14T22:04:36.565Z,12.05
2023-05-14T22:09:57.599Z,12.00
2023-05-14T22:15:18.460Z,12.01
2023-05-14T22:20:40.023Z,12.01
2023-05-14T22:26:01.360Z,11.97
2023-05-14T22:31:22.712Z,11.86
2023-05-14T22:36:43.585Z,11.83
2023-05-14T22:42:04.832Z,11.82
2023-05-14T22:47:26.033Z,11.76
2023-05-14T22:52:46.748Z,11.83
2023-05-14T22:58:07.687Z,11.86
2023-05-14T23:03:28.986Z,11.90
2023-05-14T23:08:50.012Z,11.91
2023-05-14T23:14:11.128Z,11.86
2023-05-14T23:19:32.159Z,11.82
2023-05-14T23:24:52.925Z,11.77
2023-05-14T23:30:13.811Z,11.77
2023-05-14T23:35:37.617Z,11.72
2023-05-14T23:40:58.723Z,11.65
2023-05-14T23:46:19.447Z,11.63
2023-05-14T23:51:40.604Z,11.64
2023-05-14T23:57:03.304Z,11.61
